createdAt,value
2022-08-09T00:00:01.009Z,3.03
2022-08-09T00:02:34.659Z,3.00
2022-08-09T00:06:18.225Z,3.38
2022-08-09T00:07:55.771Z,3.15
2022-08-09T00:10:29.161Z,3.65
2022-08-09T00:12:59.120Z,3.67
2022-08-09T00:15:57.932Z,3.58
2022-08-09T00:18:17.858Z,4.03
2022-08-09T00:20:50.546Z,4.00
2022-08-09T00:23:54.805Z,3.83
2022-08-09T00:26:10.977Z,4.13
2022-08-09T00:28:41.244Z,3.97
2022-08-09T00:31:57.467Z,3.83
2022-08-09T00:33:59.485Z,3.50
2022-08-09T00:36:32.624Z,3.33
2022-08-09T00:39:01.806Z,3.63
2022-08-09T00:44:15.772Z,3.25
2022-08-09T00:44:26.682Z,3.22
2022-08-09T00:47:05.619Z,3.80
2022-08-09T00:49:36.658Z,2.97
2022-08-09T00:52:15.893Z,2.85
2022-08-09T00:54:46.281Z,3.33
2022-08-09T00:57:24.702Z,3.40
2022-08-09T01:00:02.965Z,3.28
2022-08-09T01:02:35.146Z,3.40
2022-08-09T01:05:14.202Z,3.58
2022-08-09T01:08:00.321Z,3.15
2022-08-09T01:10:38.453Z,3.28
2022-08-09T01:13:18.828Z,3.58
2022-08-09T01:15:55.730Z,3.58
2022-08-09T01:18:31.488Z,3.25
2022-08-09T01:21:17.607Z,3.13
2022-08-09T01:24:01.780Z,3.00
2022-08-09T01:26:46.209Z,3.10
2022-08-09T01:29:17.548Z,3.17
2022-08-09T01:32:30.059Z,3.70
2022-08-09T01:34:39.813Z,3.03
2022-08-09T01:37:12.246Z,4.05
2022-08-09T01:39:44.055Z,3.30
2022-08-09T01:42:15.144Z,3.08
2022-08-09T01:44:44.576Z,2.97
2022-08-09T01:47:17.434Z,2.95
2022-08-09T01:49:50.967Z,3.13
2022-08-09T01:52:26.141Z,3.00
2022-08-09T01:54:58.886Z,2.83
2022-08-09T01:57:40.225Z,3.20
2022-08-09T02:00:34.506Z,3.30
2022-08-09T02:03:13.726Z,3.08
2022-08-09T02:06:03.878Z,3.13
2022-08-09T02:08:57.301Z,3.10
2022-08-09T02:11:24.142Z,3.40
2022-08-09T02:14:26.593Z,3.03
2022-08-09T02:17:14.724Z,3.08
2022-08-09T02:19:45.812Z,3.30
2022-08-09T02:22:31.485Z,3.03
2022-08-09T02:27:57.622Z,3.15
2022-08-09T02:30:54.963Z,3.33
2022-08-09T02:33:58.377Z,3.40
2022-08-09T02:36:31.480Z,3.60
2022-08-09T02:39:04.850Z,3.30
2022-08-09T02:41:40.148Z,2.97
2022-08-09T02:44:29.473Z,3.08
2022-08-09T02:47:06.881Z,2.88
2022-08-09T02:49:44.762Z,2.95
2022-08-09T02:52:16.546Z,2.63
2022-08-09T02:54:54.551Z,2.78
2022-08-09T02:57:25.709Z,2.70
2022-08-09T03:00:20.722Z,2.40
2022-08-09T03:02:59.885Z,2.40
2022-08-09T03:05:34.694Z,2.53
2022-08-09T03:08:06.602Z,2.75
2022-08-09T03:10:38.026Z,2.40
2022-08-09T03:13:09.951Z,2.20
2022-08-09T03:16:06.070Z,2.50
2022-08-09T03:18:31.680Z,2.38
2022-08-09T03:21:02.145Z,2.35
2022-08-09T03:23:31.364Z,2.30
2022-08-09T03:26:03.677Z,2.65
2022-08-09T03:28:36.215Z,2.47
2022-08-09T03:31:10.214Z,2.67
2022-08-09T03:33:54.302Z,2.60
2022-08-09T03:36:27.832Z,2.67
2022-08-09T03:38:57.231Z,2.30
2022-08-09T03:41:30.251Z,2.58
2022-08-09T03:44:15.522Z,2.88
2022-08-09T03:46:45.014Z,2.95
2022-08-09T03:49:19.382Z,2.90
2022-08-09T03:52:00.086Z,2.67
2022-08-09T03:54:34.421Z,2.47
2022-08-09T03:57:18.403Z,2.65
2022-08-09T03:59:54.983Z,2.65
2022-08-09T04:02:28.393Z,2.60
2022-08-09T04:05:01.324Z,2.83
2022-08-09T04:07:53.214Z,2.97
2022-08-09T04:10:28.851Z,2.50
2022-08-09T04:13:00.690Z,2.70
2022-08-09T04:16:17.303Z,2.78
2022-08-09T04:18:21.657Z,2.92
2022-08-09T04:20:52.373Z,3.28
2022-08-09T04:23:23.333Z,3.05
2022-08-09T04:25:54.345Z,3.40
2022-08-09T04:28:34.121Z,3.17
2022-08-09T04:31:09.046Z,3.17
2022-08-09T04:33:47.460Z,3.22
2022-08-09T04:36:26.287Z,3.17
2022-08-09T04:38:56.082Z,2.83
2022-08-09T04:41:32.819Z,3.10
2022-08-09T04:44:05.800Z,3.10
2022-08-09T04:46:59.841Z,2.92
2022-08-09T04:49:52.325Z,2.83
2022-08-09T04:52:26.804Z,2.95
2022-08-09T04:55:04.471Z,2.90
2022-08-09T04:57:54.277Z,2.97
2022-08-09T05:00:25.605Z,3.42
2022-08-09T05:03:13.368Z,2.70
2022-08-09T05:05:52.504Z,2.95
2022-08-09T05:08:35.007Z,3.20
2022-08-09T05:11:06.917Z,3.20
2022-08-09T05:13:54.905Z,3.22
2022-08-09T05:16:31.539Z,2.70
2022-08-09T05:19:02.833Z,2.70
2022-08-09T05:21:36.530Z,2.70
2022-08-09T05:24:17.323Z,2.63
2022-08-09T05:26:47.823Z,2.00
2022-08-09T05:29:31.510Z,2.13
2022-08-09T05:32:06.867Z,2.10
2022-08-09T05:34:42.860Z,2.25
2022-08-09T05:37:23.587Z,2.30
2022-08-09T05:39:59.442Z,2.15
2022-08-09T05:42:29.866Z,2.15
2022-08-09T05:45:02.841Z,2.25
2022-08-09T05:47:35.231Z,2.28
2022-08-09T05:50:25.593Z,2.17
2022-08-09T05:53:21.433Z,2.22
2022-08-09T05:58:57.846Z,1.90
2022-08-09T06:01:34.228Z,2.25
2022-08-09T06:04:12.336Z,2.30
2022-08-09T06:06:49.743Z,2.20
2022-08-09T06:09:41.199Z,2.65
2022-08-09T06:12:17.224Z,2.90
2022-08-09T06:14:53.201Z,2.50
2022-08-09T06:20:31.393Z,2.65
2022-08-09T06:23:03.339Z,2.75
2022-08-09T06:25:32.467Z,2.50
2022-08-09T06:28:05.636Z,2.13
2022-08-09T06:30:34.832Z,2.70
2022-08-09T06:33:41.022Z,2.60
2022-08-09T06:36:11.896Z,2.55
2022-08-09T06:38:50.115Z,2.50
2022-08-09T06:41:20.605Z,2.90
2022-08-09T06:55:23.107Z,2.63
2022-08-09T06:58:01.524Z,2.45
2022-08-09T07:00:51.877Z,2.88
2022-08-09T07:03:28.006Z,2.83
2022-08-09T07:06:03.642Z,2.67
2022-08-09T07:08:37.332Z,2.95
2022-08-09T07:11:08.655Z,2.47
2022-08-09T07:14:03.973Z,2.55
2022-08-09T07:16:43.424Z,2.35
2022-08-09T07:19:22.902Z,2.53
2022-08-09T07:21:55.641Z,2.20
2022-08-09T07:24:31.404Z,3.08
2022-08-09T07:27:03.119Z,2.28
2022-08-09T07:29:38.004Z,2.33
2022-08-09T07:32:13.323Z,2.42
2022-08-09T07:34:42.454Z,2.10
2022-08-09T07:37:15.751Z,1.92
2022-08-09T07:39:44.751Z,1.88
2022-08-09T07:42:15.657Z,2.10
2022-08-09T07:44:51.769Z,1.85
2022-08-09T07:47:26.500Z,2.00
2022-08-09T07:50:08.151Z,2.08
2022-08-09T08:01:52.917Z,1.75
2022-08-09T08:04:31.614Z,1.88
2022-08-09T08:07:15.597Z,1.80
2022-08-09T08:10:07.921Z,1.58
2022-08-09T08:12:45.158Z,1.85
2022-08-09T08:15:17.747Z,1.50
2022-08-09T08:17:53.790Z,1.77
2022-08-09T08:20:32.266Z,3.65
2022-08-09T08:23:16.176Z,2.05
2022-08-09T08:25:49.739Z,1.98
2022-08-09T08:28:25.916Z,1.73
2022-08-09T08:31:10.432Z,1.88
2022-08-09T08:33:52.683Z,2.22
2022-08-09T08:36:28.848Z,2.08
2022-08-09T08:38:58.763Z,1.90
2022-08-09T08:41:50.415Z,1.88
2022-08-09T08:44:26.854Z,1.65
2022-08-09T08:47:12.280Z,2.13
2022-08-09T08:49:47.823Z,1.98
2022-08-09T08:55:13.565Z,2.08
2022-08-09T08:57:43.979Z,1.58
2022-08-09T09:00:30.451Z,2.25
2022-08-09T09:03:08.720Z,2.10
2022-08-09T09:05:58.346Z,1.80
2022-08-09T09:08:38.042Z,1.67
2022-08-09T09:11:17.822Z,1.50
2022-08-09T09:13:58.669Z,1.83
2022-08-09T09:16:34.356Z,1.60
2022-08-09T09:19:36.962Z,1.80
2022-08-09T09:22:08.014Z,1.77
2022-08-09T09:24:43.986Z,1.95
2022-08-09T09:28:03.106Z,1.42
2022-08-09T09:30:26.159Z,1.27
2022-08-09T09:33:17.098Z,1.42
2022-08-09T09:36:02.653Z,2.50
2022-08-09T09:38:44.711Z,1.75
2022-08-09T09:41:33.427Z,1.98
2022-08-09T09:44:27.615Z,1.70
2022-08-09T09:47:08.558Z,1.42
2022-08-09T09:50:06.918Z,2.40
2022-08-09T09:52:35.772Z,1.55
2022-08-09T09:55:24.097Z,1.40
2022-08-09T09:58:19.137Z,1.50
2022-08-09T10:00:59.764Z,1.73
2022-08-09T10:03:44.385Z,1.83
2022-08-09T10:06:15.227Z,1.30
2022-08-09T10:08:54.975Z,1.35
2022-08-09T10:12:00.874Z,1.33
2022-08-09T10:14:30.394Z,1.38
2022-08-09T10:17:11.343Z,1.58
2022-08-09T10:19:52.927Z,1.35
2022-08-09T10:22:34.715Z,1.38
2022-08-09T10:25:11.994Z,2.03
2022-08-09T10:27:56.717Z,1.60
2022-08-09T10:34:07.987Z,1.70
2022-08-09T10:36:12.141Z,1.38
2022-08-09T10:38:56.442Z,1.27
2022-08-09T10:41:26.653Z,1.67
2022-08-09T10:44:01.796Z,1.60
2022-08-09T10:47:04.033Z,1.60
2022-08-09T10:49:54.378Z,1.63
2022-08-09T10:52:42.679Z,1.40
2022-08-09T10:55:24.284Z,1.63
2022-08-09T10:57:55.824Z,1.38
2022-08-09T11:00:51.029Z,1.27
2022-08-09T11:03:49.554Z,1.20
2022-08-09T11:06:25.472Z,1.60
2022-08-09T11:08:55.024Z,1.70
2022-08-09T11:12:12.323Z,1.50
2022-08-09T11:14:56.253Z,1.20
2022-08-09T11:18:02.653Z,1.30
2022-08-09T11:23:24.024Z,1.10
2022-08-09T11:26:00.371Z,1.58
2022-08-09T11:28:38.875Z,1.70
2022-08-09T11:31:48.836Z,1.50
2022-08-09T11:34:35.250Z,1.40
2022-08-09T11:37:07.341Z,1.40
2022-08-09T11:40:06.117Z,1.20
2022-08-09T11:42:49.351Z,1.00
2022-08-09T11:45:26.299Z,0.90
2022-08-09T11:48:26.718Z,1.15
2022-08-09T11:52:49.190Z,1.67
2022-08-09T11:54:14.445Z,1.20
2022-08-09T11:56:52.422Z,1.23
2022-08-09T11:59:33.786Z,1.20
2022-08-09T12:02:18.410Z,1.25
2022-08-09T12:04:59.069Z,2.20
2022-08-09T12:07:41.388Z,1.50
2022-08-09T12:10:14.407Z,1.40
2022-08-09T12:14:07.262Z,1.40
2022-08-09T12:15:52.927Z,1.17
2022-08-09T12:18:30.020Z,1.30
2022-08-09T12:21:02.802Z,1.38
2022-08-09T12:23:56.141Z,1.25
2022-08-09T12:26:26.254Z,1.15
2022-08-09T12:29:14.404Z,1.23
2022-08-09T12:32:02.005Z,1.05
2022-08-09T12:34:36.879Z,1.23
2022-08-09T12:37:09.537Z,1.08
2022-08-09T12:40:05.582Z,1.02
2022-08-09T12:42:36.135Z,1.17
2022-08-09T12:45:34.566Z,1.45
2022-08-09T12:48:31.031Z,1.13
2022-08-09T12:51:03.916Z,1.05
2022-08-09T12:53:38.861Z,0.90
2022-08-09T12:56:39.715Z,2.42
2022-08-09T12:59:11.768Z,1.20
2022-08-09T13:02:01.806Z,1.30
2022-08-09T13:04:38.628Z,1.40
2022-08-09T13:10:07.351Z,1.50
2022-08-09T13:13:10.171Z,2.40
2022-08-09T13:15:37.458Z,1.70
2022-08-09T13:18:17.270Z,1.33
2022-08-09T13:21:04.018Z,1.50
2022-08-09T13:24:15.778Z,1.70
2022-08-09T13:26:37.633Z,1.58
2022-08-09T13:29:09.146Z,1.67
2022-08-09T13:32:15.712Z,1.30
2022-08-09T13:34:46.176Z,1.58
2022-08-09T13:37:24.812Z,1.25
2022-08-09T13:41:54.160Z,1.45
2022-08-09T13:43:00.344Z,1.30
2022-08-09T13:46:42.699Z,1.63
2022-08-09T13:48:21.843Z,1.65
2022-08-09T13:50:53.182Z,1.33
2022-08-09T13:53:38.736Z,1.02
2022-08-09T13:56:12.640Z,1.27
2022-08-09T13:58:41.564Z,1.30
2022-08-09T14:01:13.476Z,1.27
2022-08-09T14:04:04.794Z,1.33
2022-08-09T14:09:21.724Z,1.80
2022-08-09T14:11:51.650Z,1.50
2022-08-09T14:14:27.009Z,1.60
2022-08-09T14:16:56.773Z,1.65
2022-08-09T14:19:30.268Z,1.58
2022-08-09T14:22:02.102Z,1.70
2022-08-09T14:24:33.713Z,1.60
2022-08-09T14:27:02.776Z,1.67
2022-08-09T14:30:34.687Z,1.52
2022-08-09T14:35:02.372Z,1.92
2022-08-09T14:37:41.341Z,1.70
2022-08-09T14:40:39.038Z,1.40
2022-08-09T14:43:12.592Z,1.55
2022-08-09T14:46:57.565Z,1.48
2022-08-09T14:48:37.912Z,1.40
2022-08-09T14:51:07.622Z,1.42
2022-08-09T14:53:46.789Z,1.48
2022-08-09T14:56:19.504Z,1.67
2022-08-09T14:58:50.535Z,1.60
2022-08-09T15:01:27.481Z,1.30
2022-08-09T15:03:55.981Z,2.10
2022-08-09T15:06:24.335Z,1.40
2022-08-09T15:08:56.685Z,1.40
2022-08-09T15:11:26.884Z,1.52
2022-08-09T15:14:04.427Z,1.35
2022-08-09T15:16:41.646Z,2.28
2022-08-09T15:19:18.137Z,2.20
2022-08-09T15:22:01.269Z,1.90
2022-08-09T15:24:30.969Z,1.90
2022-08-09T15:27:01.032Z,1.80
2022-08-09T15:30:58.947Z,2.22
2022-08-09T15:32:28.573Z,2.38
2022-08-09T15:35:01.239Z,2.10
2022-08-09T15:37:56.262Z,1.80
2022-08-09T15:40:31.962Z,1.90
2022-08-09T15:43:03.321Z,2.28
2022-08-09T15:46:07.491Z,2.00
2022-08-09T15:48:28.971Z,2.30
2022-08-09T15:51:01.949Z,2.28
2022-08-09T15:54:05.443Z,1.98
2022-08-09T15:56:30.795Z,3.30
2022-08-09T15:59:02.483Z,1.92
2022-08-09T16:01:35.525Z,2.00
2022-08-09T16:04:05.641Z,1.90
2022-08-09T16:07:10.512Z,2.65
2022-08-09T16:17:16.970Z,2.83
2022-08-09T16:20:27.577Z,2.67
2022-08-09T16:23:54.680Z,1.70
2022-08-09T16:29:50.465Z,2.20
2022-08-09T16:32:54.189Z,2.67
2022-08-09T16:42:26.190Z,2.25
2022-08-09T16:44:58.294Z,2.40
2022-08-09T16:48:39.726Z,5.93
2022-08-09T16:50:38.981Z,2.88
2022-08-09T16:53:09.058Z,2.30
2022-08-09T16:55:57.924Z,2.10
2022-08-09T16:58:28.945Z,2.92
2022-08-09T17:01:05.346Z,2.33
2022-08-09T17:03:36.634Z,2.42
2022-08-09T17:06:31.511Z,2.40
2022-08-09T17:09:00.184Z,2.60
2022-08-09T17:11:41.905Z,2.30
2022-08-09T17:14:25.684Z,2.57
2022-08-09T17:16:59.847Z,2.63
2022-08-09T17:20:06.182Z,2.42
2022-08-09T17:28:50.728Z,2.63
2022-08-09T17:31:25.620Z,2.70
2022-08-09T17:33:58.843Z,2.80
2022-08-09T17:37:24.524Z,3.00
2022-08-09T17:40:33.507Z,2.92
2022-08-09T17:43:33.954Z,3.17
2022-08-09T17:46:11.794Z,2.88
2022-08-09T17:48:51.618Z,2.95
2022-08-09T17:51:23.114Z,3.80
2022-08-09T17:53:56.237Z,3.38
2022-08-09T17:56:35.283Z,4.07
2022-08-09T17:59:11.457Z,3.67
2022-08-09T18:02:08.004Z,3.67
2022-08-09T18:04:30.928Z,4.13
2022-08-09T18:07:00.431Z,6.43
2022-08-09T18:09:40.090Z,6.18
2022-08-09T18:12:17.410Z,8.35
2022-08-09T18:14:53.380Z,3.63
2022-08-09T18:17:27.362Z,4.90
2022-08-09T18:20:59.879Z,3.47
2022-08-09T18:23:05.640Z,7.72
2022-08-09T18:25:53.574Z,6.13
2022-08-09T18:30:38.913Z,5.85
2022-08-09T18:31:24.818Z,13.95
2022-08-09T18:34:01.700Z,7.90
2022-08-09T18:36:32.378Z,5.50
2022-08-09T18:39:04.697Z,15.07
2022-08-09T18:41:35.535Z,15.20
2022-08-09T18:44:12.780Z,8.50
2022-08-09T18:46:50.146Z,8.13
2022-08-09T18:49:41.486Z,7.70
2022-08-09T18:52:16.042Z,11.35
2022-08-09T18:54:52.177Z,5.40
2022-08-09T18:57:23.119Z,5.88
2022-08-09T19:00:01.511Z,9.32
2022-08-09T19:02:33.696Z,6.53
2022-08-09T19:05:20.596Z,7.25
2022-08-09T19:08:04.426Z,11.82
2022-08-09T19:10:40.143Z,15.57
2022-08-09T19:13:17.048Z,12.93
2022-08-09T19:15:55.760Z,10.70
2022-08-09T19:18:34.315Z,8.82
2022-08-09T19:21:09.806Z,17.15
2022-08-09T19:24:31.528Z,6.00
2022-08-09T19:26:34.901Z,7.90
2022-08-09T19:29:09.744Z,6.43
2022-08-09T19:31:49.502Z,5.38
2022-08-09T19:34:22.043Z,5.85
2022-08-09T19:36:52.399Z,5.75
2022-08-09T19:39:43.280Z,6.63
2022-08-09T19:42:15.099Z,7.78
2022-08-09T19:44:50.701Z,5.80
2022-08-09T19:47:23.963Z,12.85
2022-08-09T19:50:06.536Z,6.18
2022-08-09T19:52:51.426Z,5.95
2022-08-09T19:55:25.533Z,5.72
2022-08-09T19:57:59.649Z,5.10
2022-08-09T20:00:29.043Z,5.85
2022-08-09T20:04:11.169Z,5.63
2022-08-09T20:05:50.796Z,5.47
2022-08-09T20:08:25.121Z,5.72
2022-08-09T20:11:04.728Z,5.10
2022-08-09T20:13:37.052Z,4.97
2022-08-09T20:16:32.767Z,5.03
2022-08-09T20:19:43.029Z,5.68
2022-08-09T20:21:56.952Z,5.80
2022-08-09T20:24:29.478Z,5.43
2022-08-09T20:27:08.473Z,5.82
2022-08-09T20:29:39.055Z,5.45
2022-08-09T20:32:31.301Z,5.65
2022-08-09T20:34:59.996Z,5.50
2022-08-09T20:38:19.386Z,6.10
2022-08-09T20:40:24.824Z,5.95
2022-08-09T20:43:00.087Z,6.00
2022-08-09T20:46:01.452Z,7.43
2022-08-09T20:48:30.921Z,8.65
2022-08-09T20:51:02.948Z,7.72
2022-08-09T20:53:37.567Z,12.90
2022-08-09T20:56:20.758Z,9.00
2022-08-09T20:58:54.579Z,11.63
2022-08-09T21:01:34.887Z,6.28
2022-08-09T21:05:55.291Z,14.90
2022-08-09T21:07:11.254Z,7.30
2022-08-09T21:09:45.957Z,9.13
2022-08-09T21:15:15.381Z,7.70
2022-08-09T21:18:20.928Z,7.07
2022-08-09T21:20:32.734Z,7.50
2022-08-09T21:23:09.305Z,7.70
2022-08-09T21:25:59.830Z,8.93
2022-08-09T21:28:34.173Z,7.93
2022-08-09T21:31:17.856Z,7.43
2022-08-09T21:33:51.683Z,7.65
2022-08-09T21:36:29.124Z,7.22
2022-08-09T21:39:00.196Z,7.85
2022-08-09T21:42:04.302Z,7.30
2022-08-09T21:44:33.238Z,6.93
2022-08-09T21:47:05.012Z,6.93
2022-08-09T21:49:40.032Z,7.38
2022-08-09T21:52:14.861Z,7.40
2022-08-09T21:54:49.488Z,7.10
2022-08-09T21:57:37.391Z,7.05
2022-08-09T22:00:12.909Z,7.13
2022-08-09T22:02:42.902Z,7.10
2022-08-09T22:05:22.393Z,6.32
2022-08-09T22:07:53.086Z,6.60
2022-08-09T22:10:24.170Z,7.13
2022-08-09T22:12:53.028Z,6.50
2022-08-09T22:15:23.329Z,6.18
2022-08-09T22:18:03.819Z,6.30
2022-08-09T22:20:32.397Z,6.57
2022-08-09T22:23:00.752Z,6.07
2022-08-09T22:26:06.548Z,5.88
2022-08-09T22:28:29.457Z,9.40
2022-08-09T22:31:00.777Z,5.93
2022-08-09T22:33:37.677Z,5.50
2022-08-09T22:36:19.122Z,6.05
2022-08-09T22:38:48.793Z,5.82
2022-08-09T22:41:19.422Z,5.00
2022-08-09T22:44:03.040Z,5.40
2022-08-09T22:48:11.472Z,5.57
2022-08-09T22:49:21.902Z,5.18
2022-08-09T22:51:57.240Z,5.00
2022-08-09T22:54:27.569Z,5.90
2022-08-09T22:56:58.644Z,5.30
2022-08-09T22:59:57.459Z,5.30
2022-08-09T23:02:20.452Z,5.10
2022-08-09T23:04:53.312Z,4.80
2022-08-09T23:08:21.227Z,4.88
2022-08-09T23:10:30.076Z,4.60
2022-08-09T23:13:00.477Z,4.40
2022-08-09T23:15:30.271Z,4.55
2022-08-09T23:17:59.060Z,4.50
2022-08-09T23:20:28.909Z,4.03
2022-08-09T23:22:57.545Z,4.55
2022-08-09T23:25:26.044Z,4.10
2022-08-09T23:28:14.483Z,3.60
2022-08-09T23:30:51.616Z,4.28
2022-08-09T23:33:21.386Z,3.67
2022-08-09T23:36:05.793Z,4.15
2022-08-09T23:38:49.037Z,4.28
2022-08-09T23:41:27.701Z,3.60
2022-08-09T23:43:58.267Z,4.00
2022-08-09T23:46:28.551Z,4.40
2022-08-09T23:48:56.913Z,4.35
2022-08-09T23:51:25.526Z,4.47
2022-08-09T23:54:02.555Z,4.63
2022-08-09T23:56:53.296Z,4.68
2022-08-09T23:59:21.358Z,4.72
